Time;durP1;ratioP1;P1;durP2;ratioP2;P2;SDS_P1;SDS_P2;PMS_P1;PMS_P2;Temp;Humidity;BMP_temperature;BMP_pressure;BME280_temperature;BME280_humidity;BME280_pressure;Samples;Min_cycle;Max_cycle;Signal;HPM_P1;HPM_P2
2022/12/30 00:01:10;;;;;;;21.75;4.15;;;6.40;99.90;;;;;;5008928;28;20054;-80
2022/12/30 00:03:36;;;;;;;14.10;3.25;;;6.90;99.90;;;;;;5010092;28;20046;-80
2022/12/30 00:06:04;;;;;;;14.00;3.42;;;6.40;99.90;;;;;;5022352;28;20045;-80
2022/12/30 00:08:47;;;;;;;18.73;3.90;;;6.30;99.90;;;;;;5011411;28;20065;-80
2022/12/30 00:11:22;;;;;;;20.90;3.25;;;6.30;99.90;;;;;;5027168;28;20076;-80
2022/12/30 00:34:00;;;;;;;19.08;3.67;;;6.20;99.90;;;;;;5017025;28;20050;-80
2022/12/30 00:36:28;;;;;;;16.33;3.42;;;7.10;99.90;;;;;;5007796;28;20132;-80
2022/12/30 00:38:54;;;;;;;18.90;3.50;;;6.10;99.90;;;;;;5024449;28;20527;-80
2022/12/30 00:44:04;;;;;;;10.95;3.03;;;6.10;99.90;;;;;;5023653;28;20057;-80
2022/12/30 00:46:31;;;;;;;20.50;4.05;;;6.00;99.90;;;;;;5010662;28;20064;-80
2022/12/30 00:57:09;;;;;;;16.63;3.28;;;5.80;99.90;;;;;;5027377;28;20045;-80
2022/12/30 00:59:34;;;;;;;19.02;3.97;;;6.40;99.90;;;;;;5028633;28;20052;-80
2022/12/30 01:02:00;;;;;;;17.45;4.18;;;5.90;99.90;;;;;;5027581;28;20152;-81
2022/12/30 01:04:26;;;;;;;21.83;4.38;;;5.90;99.90;;;;;;5027820;28;20049;-80
2022/12/30 01:06:51;;;;;;;13.90;3.30;;;5.90;99.90;;;;;;5026852;28;20072;-80
2022/12/30 01:09:17;;;;;;;16.95;3.97;;;5.90;99.90;;;;;;5024775;28;20049;-80
2022/12/30 01:11:43;;;;;;;11.43;3.33;;;5.90;99.90;;;;;;5027442;28;20057;-80
2022/12/30 01:14:11;;;;;;;18.40;4.05;;;5.90;99.90;;;;;;5028970;28;20053;-81
2022/12/30 01:16:36;;;;;;;14.40;3.38;;;5.90;99.90;;;;;;5028441;28;20052;-79
2022/12/30 01:19:02;;;;;;;15.60;3.45;;;5.90;99.90;;;;;;5027653;28;20530;-80
2022/12/30 01:21:27;;;;;;;13.90;3.30;;;5.90;99.90;;;;;;5027363;28;20059;-80
2022/12/30 01:23:53;;;;;;;12.10;3.33;;;5.80;99.90;;;;;;5011486;28;20113;-80
2022/12/30 01:26:19;;;;;;;16.05;4.00;;;6.40;99.90;;;;;;5008661;28;20505;-80
2022/12/30 01:28:44;;;;;;;14.48;3.35;;;5.90;99.90;;;;;;5018931;28;20050;-80
2022/12/30 01:31:11;;;;;;;12.05;2.90;;;5.90;99.90;;;;;;5026873;28;20496;-81
2022/12/30 01:33:37;;;;;;;12.43;3.08;;;5.90;99.90;;;;;;5027315;28;20511;-80
2022/12/30 01:36:04;;;;;;;17.60;3.10;;;5.80;99.90;;;;;;5029562;28;20040;-80
2022/12/30 01:38:32;;;;;;;19.88;4.53;;;5.80;99.90;;;;;;5031813;28;20431;-80
2022/12/30 01:40:58;;;;;;;10.13;3.05;;;5.80;99.90;;;;;;5030648;28;20060;-80
2022/12/30 01:43:45;;;;;;;13.23;2.60;;;5.80;99.90;;;;;;5032815;28;20107;-79
2022/12/30 01:46:16;;;;;;;16.08;2.80;;;5.80;99.90;;;;;;5032646;28;20045;-80
2022/12/30 01:48:42;;;;;;;16.05;3.60;;;5.80;99.90;;;;;;5031700;28;20049;-80
2022/12/30 01:51:14;;;;;;;13.52;3.65;;;5.80;99.90;;;;;;5014074;28;20088;-80
2022/12/30 01:53:43;;;;;;;14.05;3.38;;;5.70;99.90;;;;;;5027868;28;20041;-80
2022/12/30 01:56:18;;;;;;;18.08;3.78;;;5.70;99.90;;;;;;5030210;28;20166;-80
2022/12/30 01:58:58;;;;;;;25.98;4.95;;;5.70;99.90;;;;;;5029934;28;20053;-80
2022/12/30 02:01:25;;;;;;;13.05;3.85;;;5.70;99.90;;;;;;5030107;28;20163;-80
2022/12/30 02:04:00;;;;;;;16.92;3.22;;;5.70;99.90;;;;;;5046638;28;20049;-80
2022/12/30 02:06:41;;;;;;;21.05;4.47;;;5.70;99.90;;;;;;5029805;28;20085;-80
2022/12/30 02:09:06;;;;;;;19.38;4.10;;;5.60;99.90;;;;;;5030389;28;20504;-80
2022/12/30 02:11:33;;;;;;;16.48;4.35;;;5.60;99.90;;;;;;5030907;28;20045;-80
2022/12/30 02:13:59;;;;;;;14.43;3.42;;;5.60;99.90;;;;;;5013322;28;20837;-80
2022/12/30 02:16:56;;;;;;;14.25;3.97;;;5.60;99.90;;;;;;5013189;28;20052;-80
2022/12/30 02:19:59;;;;;;;14.23;3.63;;;5.60;99.90;;;;;;5030084;28;20076;-80
2022/12/30 02:22:34;;;;;;;;;;;5.50;99.90;;;;;;5030473;28;20462;-80
2022/12/30 02:25:06;;;;;;;14.15;3.45;;;5.60;99.90;;;;;;5029379;28;19989;-79
2022/12/30 02:27:46;;;;;;;16.10;3.85;;;5.60;99.90;;;;;;5031304;28;20049;-79
2022/12/30 02:30:20;;;;;;;16.25;3.63;;;5.60;99.90;;;;;;5028128;28;20057;-79
2022/12/30 02:33:23;;;;;;;13.52;3.72;;;5.60;99.90;;;;;;5026785;28;20506;-79
2022/12/30 02:36:07;;;;;;;11.82;3.88;;;5.50;99.90;;;;;;5027600;28;20085;-80
2022/12/30 02:38:38;;;;;;;11.82;3.40;;;5.50;99.90;;;;;;5028114;28;20041;-81
2022/12/30 02:46:54;;;;;;;15.80;4.40;;;5.50;99.90;;;;;;5028462;28;20057;-80
2022/12/30 02:49:20;;;;;;;15.52;3.50;;;5.40;99.90;;;;;;5027843;28;20164;-80
2022/12/30 02:54:33;;;;;;;15.65;3.88;;;5.40;99.90;;;;;;5015686;28;20056;-80
2022/12/30 02:56:59;;;;;;;11.30;3.38;;;5.30;99.90;;;;;;5016581;28;20492;-80
2022/12/30 03:05:39;;;;;;;16.00;3.75;;;5.20;99.90;;;;;;5007814;28;20050;-80
2022/12/30 03:08:12;;;;;;;9.32;2.95;;;5.10;99.90;;;;;;5007904;28;20164;-80
2022/12/30 03:13:43;;;;;;;;;;;5.10;99.90;;;;;;5028172;28;20053;-80
2022/12/30 03:16:29;;;;;;;21.10;3.13;;;5.10;99.90;;;;;;5028985;28;19927;-80
2022/12/30 03:18:59;;;;;;;16.90;3.88;;;5.70;99.90;;;;;;5027950;28;20049;-80
2022/12/30 03:21:31;;;;;;;15.50;3.05;;;5.30;99.90;;;;;;5027275;28;20041;-80
2022/12/30 03:27:05;;;;;;;20.08;3.63;;;5.00;99.90;;;;;;5008168;28;20053;-79
2022/12/30 03:29:46;;;;;;;16.55;3.85;;;5.00;99.90;;;;;;4970525;28;1074484;-80
2022/12/30 03:32:14;;;;;;;15.95;3.95;;;4.90;99.90;;;;;;5007903;28;20073;-80
2022/12/30 03:34:41;;;;;;;16.83;3.72;;;5.00;99.90;;;;;;5029040;28;20120;-80
2022/12/30 03:37:27;;;;;;;14.00;3.78;;;4.90;99.90;;;;;;5029345;28;20041;-80
2022/12/30 03:42:52;;;;;;;11.30;3.60;;;4.90;99.90;;;;;;5011244;28;20057;-79
2022/12/30 03:45:19;;;;;;;14.00;3.72;;;4.90;99.90;;;;;;5029478;28;20073;-79
2022/12/30 03:47:45;;;;;;;16.60;3.97;;;4.80;99.90;;;;;;5027591;28;20115;-79
2022/12/30 03:50:15;;;;;;;15.90;3.78;;;4.80;99.90;;;;;;5027025;28;20068;-80
2022/12/30 03:52:41;;;;;;;11.52;3.80;;;4.80;99.90;;;;;;5018729;28;20128;-79
2022/12/30 03:55:07;;;;;;;11.73;3.38;;;4.70;99.90;;;;;;5028449;28;20465;-80
2022/12/30 03:57:33;;;;;;;17.60;4.20;;;4.70;99.90;;;;;;5027438;28;20037;-80
2022/12/30 03:59:59;;;;;;;13.30;3.55;;;4.70;99.90;;;;;;5010426;28;20419;-79
2022/12/30 04:02:25;;;;;;;14.65;3.90;;;4.70;99.90;;;;;;5027912;28;20135;-79
2022/12/30 04:04:51;;;;;;;14.10;4.10;;;4.70;99.90;;;;;;5028949;28;20208;-80
2022/12/30 04:07:17;;;;;;;19.33;4.22;;;4.70;99.90;;;;;;5028015;28;20037;-79
2022/12/30 04:09:42;;;;;;;15.65;3.78;;;4.70;99.90;;;;;;5013173;28;20833;-79
2022/12/30 04:12:08;;;;;;;14.45;3.22;;;4.70;99.90;;;;;;5007258;28;20041;-80
2022/12/30 04:14:34;;;;;;;19.95;3.80;;;4.60;99.90;;;;;;5012051;28;20045;-80
2022/12/30 04:16:59;;;;;;;14.35;3.60;;;4.50;99.90;;;;;;5029092;28;20037;-80
2022/12/30 04:19:25;;;;;;;10.98;3.90;;;4.60;99.90;;;;;;5029054;28;20049;-79
2022/12/30 04:21:51;;;;;;;9.95;3.40;;;4.60;99.90;;;;;;5028636;28;20802;-79
2022/12/30 04:24:16;;;;;;;13.32;4.03;;;4.50;99.90;;;;;;5023372;28;20050;-79
2022/12/30 04:26:42;;;;;;;17.27;3.80;;;4.60;99.90;;;;;;5023997;28;20121;-79
2022/12/30 04:29:08;;;;;;;8.90;3.45;;;4.40;99.90;;;;;;5026035;28;20121;-80
2022/12/30 04:31:33;;;;;;;12.30;3.85;;;4.40;99.90;;;;;;5027407;28;20068;-80
2022/12/30 04:33:59;;;;;;;16.95;4.18;;;4.40;99.90;;;;;;5028192;28;20048;-80
2022/12/30 04:36:25;;;;;;;12.02;3.50;;;4.50;99.90;;;;;;5028674;28;20049;-80
2022/12/30 04:38:50;;;;;;;11.52;4.22;;;4.40;99.90;;;;;;5027216;28;20044;-79
2022/12/30 04:41:19;;;;;;;14.30;3.97;;;4.40;99.90;;;;;;5010664;28;20056;-80
2022/12/30 04:43:46;;;;;;;11.43;3.50;;;4.40;99.90;;;;;;5027607;28;20543;-79
2022/12/30 04:46:12;;;;;;;10.68;4.05;;;4.40;99.90;;;;;;5028276;28;20045;-79
2022/12/30 04:48:37;;;;;;;9.65;4.50;;;4.50;99.90;;;;;;5027279;28;20045;-80
2022/12/30 04:51:03;;;;;;;11.63;4.30;;;4.30;99.90;;;;;;5025863;28;20037;-80
2022/12/30 04:53:29;;;;;;;11.10;3.60;;;4.20;99.90;;;;;;5012896;28;20423;-80
2022/12/30 04:55:56;;;;;;;13.52;3.80;;;4.20;99.90;;;;;;5027731;28;20042;-79
2022/12/30 04:58:23;;;;;;;12.35;4.07;;;4.70;99.90;;;;;;5014121;28;20125;-80
2022/12/30 05:00:51;;;;;;;15.18;4.47;;;4.20;99.90;;;;;;5008530;28;20049;-80
2022/12/30 05:03:19;;;;;;;15.23;4.22;;;4.20;99.90;;;;;;5008561;28;20496;-80
2022/12/30 05:05:46;;;;;;;11.00;3.47;;;4.10;99.90;;;;;;5008254;28;20049;-79
2022/12/30 05:08:11;;;;;;;13.27;3.78;;;4.60;99.90;;;;;;5015534;28;20046;-80
2022/12/30 05:10:38;;;;;;;11.23;4.57;;;4.10;99.90;;;;;;5000928;28;20057;-80
2022/12/30 05:13:04;;;;;;;12.07;3.88;;;4.10;99.90;;;;;;5007964;28;20489;-79
2022/12/30 05:15:30;;;;;;;10.80;3.72;;;4.10;99.90;;;;;;5008532;28;20042;-80
2022/12/30 05:17:56;;;;;;;10.82;3.80;;;4.10;99.90;;;;;;5006655;28;20050;-79
2022/12/30 05:20:22;;;;;;;13.85;4.05;;;4.10;99.90;;;;;;5007543;28;20109;-79
2022/12/30 05:22:47;;;;;;;14.98;4.22;;;4.10;99.90;;;;;;4995373;28;20140;-79
2022/12/30 05:27:57;;;;;;;15.55;4.10;;;4.10;99.90;;;;;;5014271;28;20053;-79
2022/12/30 05:30:23;;;;;;;15.50;3.67;;;4.10;99.90;;;;;;5027960;28;20504;-79
2022/12/30 05:32:49;;;;;;;15.82;3.40;;;4.10;99.90;;;;;;5026389;28;20484;-79
2022/12/30 05:35:15;;;;;;;11.25;3.47;;;4.10;99.90;;;;;;5027494;28;20069;-79
2022/12/30 05:37:41;;;;;;;11.40;3.78;;;4.10;99.90;;;;;;5027237;28;20423;-80
2022/12/30 05:40:09;;;;;;;13.48;3.45;;;4.00;99.90;;;;;;5025272;28;20042;-79
2022/12/30 05:42:35;;;;;;;10.55;4.22;;;4.00;99.90;;;;;;5024421;28;20467;-79
2022/12/30 05:45:00;;;;;;;11.52;3.80;;;4.00;99.90;;;;;;5006343;28;20145;-79
2022/12/30 05:47:26;;;;;;;11.35;3.25;;;4.00;99.90;;;;;;5006627;28;20050;-79
2022/12/30 05:49:52;;;;;;;13.63;3.78;;;4.00;99.90;;;;;;5010254;28;20681;-79
2022/12/30 05:52:17;;;;;;;12.50;3.03;;;4.10;99.90;;;;;;5025924;28;20049;-79
2022/12/30 05:54:43;;;;;;;15.85;3.55;;;4.00;99.90;;;;;;5025692;28;20053;-79
2022/12/30 05:57:09;;;;;;;15.40;3.17;;;4.00;99.90;;;;;;5026076;28;20084;-80
2022/12/30 05:59:34;;;;;;;11.85;3.33;;;4.00;99.90;;;;;;5026088;28;20136;-80
2022/12/30 06:02:01;;;;;;;13.57;3.30;;;4.00;99.90;;;;;;5027331;28;20050;-80
2022/12/30 06:04:27;;;;;;;16.23;3.63;;;3.90;99.90;;;;;;5027037;28;20587;-80
2022/12/30 06:06:53;;;;;;;12.90;3.53;;;4.00;99.90;;;;;;5026436;28;20052;-80
2022/12/30 06:09:19;;;;;;;12.70;3.63;;;3.90;99.90;;;;;;5017310;28;20419;-80
2022/12/30 06:11:44;;;;;;;14.50;3.10;;;3.90;99.90;;;;;;5026174;28;20050;-80
2022/12/30 06:14:12;;;;;;;15.10;3.28;;;3.90;99.90;;;;;;5026745;28;20041;-80
2022/12/30 06:16:37;;;;;;;15.02;3.75;;;3.90;99.90;;;;;;5026400;28;20113;-80
2022/12/30 06:19:03;;;;;;;13.38;3.47;;;3.90;99.90;;;;;;5008027;28;20139;-80
2022/12/30 06:21:29;;;;;;;13.98;3.63;;;3.90;99.90;;;;;;5007980;28;20565;-80
2022/12/30 06:23:54;;;;;;;15.38;3.70;;;3.90;99.90;;;;;;5010953;28;20169;-80
2022/12/30 06:26:20;;;;;;;19.17;4.47;;;3.90;99.90;;;;;;5010939;28;20065;-80
2022/12/30 06:28:45;;;;;;;9.93;3.17;;;3.90;99.90;;;;;;5009919;28;20092;-80
2022/12/30 06:31:11;;;;;;;14.23;3.78;;;3.80;99.90;;;;;;5009103;28;20100;-80
2022/12/30 06:33:37;;;;;;;13.07;3.80;;;3.80;99.90;;;;;;5029265;28;20099;-80
2022/12/30 06:36:03;;;;;;;10.32;2.90;;;3.80;99.90;;;;;;5012981;28;20042;-79
2022/12/30 06:38:28;;;;;;;12.38;3.25;;;3.80;99.90;;;;;;5029089;28;20046;-80
2022/12/30 06:40:54;;;;;;;16.00;3.50;;;3.80;99.90;;;;;;5010708;28;20806;-80
2022/12/30 06:43:20;;;;;;;16.25;3.72;;;3.80;99.90;;;;;;5010707;28;20084;-80
2022/12/30 06:45:45;;;;;;;14.02;3.45;;;3.80;99.90;;;;;;5024478;28;20137;-80
2022/12/30 06:48:11;;;;;;;11.68;3.60;;;3.80;99.90;;;;;;5028434;28;20049;-80
2022/12/30 06:50:37;;;;;;;11.25;3.05;;;3.80;99.90;;;;;;5023996;28;20480;-81
2022/12/30 06:53:04;;;;;;;14.32;3.15;;;3.80;99.90;;;;;;5020281;28;20121;-82
2022/12/30 06:55:29;;;;;;;14.70;3.63;;;3.70;99.90;;;;;;5020853;28;20140;-81
2022/12/30 06:57:55;;;;;;;13.88;3.47;;;3.70;99.90;;;;;;5022770;28;20124;-81
2022/12/30 07:00:20;;;;;;;10.57;3.42;;;3.70;99.90;;;;;;5017988;28;20042;-81
2022/12/30 07:02:46;;;;;;;14.70;3.60;;;3.70;99.90;;;;;;5020139;28;20147;-81
2022/12/30 07:05:12;;;;;;;12.80;4.55;;;3.70;99.90;;;;;;5015324;28;20038;-81
2022/12/30 07:07:37;;;;;;;15.63;3.80;;;3.70;99.90;;;;;;5022438;28;20083;-81
2022/12/30 07:10:03;;;;;;;15.40;3.70;;;3.60;99.90;;;;;;5014150;28;20096;-81
2022/12/30 07:12:29;;;;;;;14.45;4.43;;;3.70;99.90;;;;;;5019560;28;20159;-81
2022/12/30 07:14:55;;;;;;;11.80;3.67;;;3.70;99.90;;;;;;5003698;28;20045;-80
2022/12/30 07:17:20;;;;;;;16.80;3.85;;;3.70;99.90;;;;;;5024894;28;20034;-81
2022/12/30 07:19:46;;;;;;;15.40;3.30;;;3.70;99.90;;;;;;5013668;28;20048;-81
2022/12/30 07:22:13;;;;;;;12.40;3.35;;;4.20;99.90;;;;;;5029036;28;20063;-80
2022/12/30 07:24:38;;;;;;;12.15;3.80;;;3.70;99.90;;;;;;5027622;28;20052;-82
2022/12/30 07:27:04;;;;;;;12.57;3.53;;;3.70;99.90;;;;;;5028233;28;20667;-81
2022/12/30 07:29:30;;;;;;;14.25;3.67;;;3.70;99.90;;;;;;5028160;28;20067;-82
2022/12/30 07:31:56;;;;;;;13.20;3.40;;;3.80;99.90;;;;;;5021521;28;20111;-80
2022/12/30 07:34:22;;;;;;;12.10;3.30;;;3.80;99.90;;;;;;5026487;28;20055;-81
2022/12/30 07:36:47;;;;;;;14.75;3.58;;;3.80;99.90;;;;;;5028874;28;20045;-81
2022/12/30 07:39:13;;;;;;;12.63;3.38;;;3.80;99.90;;;;;;5028889;28;20045;-81
2022/12/30 07:41:38;;;;;;;15.35;4.07;;;3.80;99.90;;;;;;5026755;28;20514;-80
2022/12/30 07:44:04;;;;;;;18.00;4.90;;;3.90;99.90;;;;;;5028182;28;20542;-80
2022/12/30 07:46:30;;;;;;;11.65;3.80;;;3.90;99.90;;;;;;5021506;28;20046;-80
2022/12/30 07:48:55;;;;;;;12.80;4.22;;;3.90;99.90;;;;;;5021805;28;20077;-80
2022/12/30 07:51:21;;;;;;;14.40;3.92;;;3.90;99.90;;;;;;5028223;28;20054;-79
2022/12/30 07:53:46;;;;;;;12.00;3.38;;;3.90;99.90;;;;;;5029528;28;20033;-79
2022/12/30 07:56:13;;;;;;;14.43;3.92;;;4.00;99.90;;;;;;5028099;28;20079;-79
2022/12/30 07:58:40;;;;;;;11.30;4.22;;;4.00;99.90;;;;;;5027309;28;20041;-80
2022/12/30 08:01:07;;;;;;;16.50;3.63;;;4.00;99.90;;;;;;5014956;28;20038;-80
2022/12/30 08:03:33;;;;;;;12.68;3.63;;;3.90;99.90;;;;;;5026635;28;20068;-80
2022/12/30 08:06:07;;;;;;;19.77;4.07;;;4.00;99.90;;;;;;5028067;28;20049;-79
2022/12/30 08:08:33;;;;;;;8.20;3.47;;;4.00;99.90;;;;;;5029193;28;20045;-79
2022/12/30 08:11:00;;;;;;;11.07;3.35;;;4.20;99.90;;;;;;5027577;28;20087;-81
2022/12/30 08:13:26;;;;;;;12.85;3.40;;;4.00;99.90;;;;;;5028980;28;20079;-81
2022/12/30 08:15:52;;;;;;;13.88;3.72;;;4.00;99.90;;;;;;5028786;28;20042;-81
2022/12/30 08:18:18;;;;;;;16.00;3.95;;;4.00;99.90;;;;;;5008003;28;20040;-80
2022/12/30 08:20:43;;;;;;;12.02;3.50;;;4.00;99.90;;;;;;5008554;28;20058;-80
2022/12/30 08:23:09;;;;;;;17.40;3.53;;;4.10;99.90;;;;;;5009455;28;20504;-80
2022/12/30 08:25:35;;;;;;;17.33;4.30;;;4.10;99.90;;;;;;5007483;28;20045;-80
2022/12/30 08:28:00;;;;;;;12.82;4.70;;;4.10;99.90;;;;;;5007322;28;20468;-81
2022/12/30 08:30:27;;;;;;;10.45;3.42;;;4.10;99.90;;;;;;5007386;28;20133;-80
2022/12/30 08:32:53;;;;;;;14.40;3.63;;;4.10;99.90;;;;;;5008826;28;20463;-80
2022/12/30 08:35:18;;;;;;;11.40;5.13;;;4.20;99.90;;;;;;5021055;28;20132;-80
2022/12/30 08:37:47;;;;;;;16.92;3.75;;;4.20;99.90;;;;;;5028134;28;20117;-80
2022/12/30 08:40:12;;;;;;;19.95;4.13;;;4.20;99.90;;;;;;5027374;28;20045;-81
2022/12/30 08:42:38;;;;;;;12.85;4.03;;;4.30;99.90;;;;;;5027682;28;20072;-80
2022/12/30 08:45:05;;;;;;;11.95;4.30;;;4.30;99.90;;;;;;5027767;28;20045;-80
2022/12/30 08:47:33;;;;;;;11.73;3.70;;;4.40;99.90;;;;;;5027159;28;20081;-80
2022/12/30 08:49:58;;;;;;;11.95;3.60;;;4.40;99.90;;;;;;5026775;28;20099;-81
2022/12/30 08:52:24;;;;;;;13.38;4.10;;;4.40;99.90;;;;;;5010818;28;20050;-81
2022/12/30 08:54:50;;;;;;;13.77;3.60;;;5.00;99.90;;;;;;5008167;28;20049;-81
2022/12/30 08:57:15;;;;;;;15.57;3.90;;;4.50;99.90;;;;;;5006706;28;20052;-81
2022/12/30 08:59:41;;;;;;;14.15;3.40;;;4.50;99.90;;;;;;5006515;28;20050;-81
2022/12/30 09:02:10;;;;;;;11.70;3.75;;;4.60;99.90;;;;;;5008445;28;20077;-80
2022/12/30 09:04:36;;;;;;;11.70;3.60;;;4.60;99.90;;;;;;5014738;28;20125;-81
2022/12/30 09:07:02;;;;;;;11.73;3.40;;;4.60;99.90;;;;;;5023217;28;20472;-80
2022/12/30 09:09:27;;;;;;;11.48;3.65;;;4.70;99.90;;;;;;5021640;28;20044;-81
2022/12/30 09:11:53;;;;;;;12.70;3.28;;;4.80;99.90;;;;;;5026070;28;20601;-81
2022/12/30 09:14:19;;;;;;;13.57;3.40;;;4.80;99.90;;;;;;5026818;28;20049;-81
2022/12/30 09:16:45;;;;;;;16.10;3.80;;;4.80;99.90;;;;;;5021790;28;20068;-82
2022/12/30 09:19:11;;;;;;;10.73;3.20;;;4.90;99.90;;;;;;5010411;28;20487;-81
2022/12/30 09:21:36;;;;;;;16.15;3.85;;;4.90;99.90;;;;;;5011814;28;20463;-81
2022/12/30 09:24:02;;;;;;;14.90;4.05;;;4.90;99.90;;;;;;5011454;28;20042;-81
2022/12/30 09:26:31;;;;;;;11.77;3.70;;;5.00;99.90;;;;;;4989895;28;21057;-83
2022/12/30 09:28:58;;;;;;;11.38;3.53;;;5.00;99.90;;;;;;5006522;28;20056;-83
2022/12/30 09:31:26;;;;;;;11.02;3.17;;;5.10;99.90;;;;;;5005656;28;20053;-82
2022/12/30 09:33:52;;;;;;;15.43;3.30;;;5.20;99.90;;;;;;5005311;28;20050;-82
2022/12/30 09:36:18;;;;;;;10.02;2.97;;;5.20;99.90;;;;;;5005216;28;20147;-82
2022/12/30 09:38:44;;;;;;;13.05;3.92;;;5.20;99.90;;;;;;5012285;28;20406;-83
2022/12/30 09:44:34;;;;;;;14.10;3.42;;;5.30;99.90;;;;;;5027096;28;20499;-82
2022/12/30 09:47:21;;;;;;;8.98;2.85;;;5.40;99.90;;;;;;5025921;28;20050;-83
2022/12/30 09:49:53;;;;;;;8.00;2.65;;;5.40;99.90;;;;;;5027615;28;20502;-83
2022/12/30 09:52:40;;;;;;;16.20;3.00;;;5.50;99.90;;;;;;5026656;28;20049;-83
2022/12/30 09:55:28;;;;;;;7.97;3.05;;;5.50;99.90;;;;;;5020514;28;20072;-83
2022/12/30 09:58:07;;;;;;;10.10;2.70;;;5.60;99.90;;;;;;5023263;28;20138;-82
2022/12/30 10:00:35;;;;;;;10.25;3.22;;;5.70;99.90;;;;;;5009602;28;20412;-81
2022/12/30 10:03:05;;;;;;;12.80;2.45;;;5.70;99.90;;;;;;5010614;28;20112;-80
2022/12/30 10:05:55;;;;;;;10.60;2.45;;;5.70;99.90;;;;;;4994806;28;20081;-81
2022/12/30 10:08:37;;;;;;;12.18;2.72;;;5.70;99.90;;;;;;5015266;28;20488;-82
2022/12/30 10:11:27;;;;;;;7.72;2.17;;;5.80;99.90;;;;;;5031005;28;20046;-80
2022/12/30 10:14:01;;;;;;;8.60;2.60;;;5.90;99.90;;;;;;5030267;28;20046;-81
2022/12/30 10:16:36;;;;;;;10.45;3.08;;;5.90;99.90;;;;;;5003033;28;20046;-80
2022/12/30 10:19:11;;;;;;;8.95;2.60;;;5.90;99.90;;;;;;5011395;28;20103;-81
2022/12/30 10:21:42;;;;;;;7.18;2.58;;;6.00;99.90;;;;;;5011080;28;20500;-82
2022/12/30 10:24:29;;;;;;;10.20;2.58;;;6.10;99.90;;;;;;5025763;28;20045;-80
2022/12/30 10:26:56;;;;;;;11.15;3.38;;;6.10;99.90;;;;;;5028775;28;20495;-81
2022/12/30 10:29:33;;;;;;;8.05;2.15;;;6.20;99.90;;;;;;5026982;28;20060;-81
2022/12/30 10:32:21;;;;;;;9.80;2.25;;;6.20;99.90;;;;;;5025971;28;20586;-81
2022/12/30 10:35:23;;;;;;;7.45;2.10;;;6.30;99.90;;;;;;5012806;28;20049;-82
2022/12/30 10:37:56;;;;;;;9.77;3.88;;;6.30;99.90;;;;;;4998454;28;20132;-83
2022/12/30 10:40:27;;;;;;;6.15;2.80;;;6.40;99.90;;;;;;5009641;28;20558;-82
2022/12/30 10:43:30;;;;;;;11.07;4.00;;;6.50;99.90;;;;;;5009477;28;20054;-83
2022/12/30 10:46:36;;;;;;;11.23;2.53;;;6.50;99.90;;;;;;5009149;28;20600;-81
2022/12/30 10:49:20;;;;;;;8.05;2.63;;;6.60;99.90;;;;;;5009647;28;20830;-82
2022/12/30 10:51:49;;;;;;;4.93;2.10;;;6.60;99.90;;;;;;5017480;28;20128;-82
2022/12/30 10:54:17;;;;;;;5.38;3.05;;;6.30;99.90;;;;;;5012083;28;20136;-82
2022/12/30 10:56:47;;;;;;;5.72;2.28;;;6.70;99.90;;;;;;5028829;28;20052;-81
2022/12/30 10:59:15;;;;;;;6.10;2.00;;;6.80;99.90;;;;;;5027634;28;20053;-82
2022/12/30 11:01:44;;;;;;;6.88;1.90;;;6.80;99.90;;;;;;5017797;28;20582;-83
2022/12/30 11:04:37;;;;;;;5.78;2.30;;;6.80;99.90;;;;;;5011805;28;20050;-82
2022/12/30 11:07:04;;;;;;;;;;;6.80;99.90;;;;;;5016598;28;20046;-82
2022/12/30 11:09:29;;;;;;;5.95;2.50;;;6.80;99.90;;;;;;5021384;28;19932;-83
2022/12/30 11:15:10;;;;;;;3.28;1.70;;;8.10;99.90;;;;;;5010037;28;20054;-83
2022/12/30 11:17:54;;;;;;;6.20;2.05;;;7.00;99.90;;;;;;5040978;28;20042;-83
2022/12/30 11:20:26;;;;;;;8.57;2.28;;;7.00;99.90;;;;;;5024942;28;20033;-81
2022/12/30 11:22:53;;;;;;;;;;;7.10;99.90;;;;;;5012569;28;20088;-81
2022/12/30 11:25:42;;;;;;;6.68;1.90;;;7.10;99.90;;;;;;5029925;28;19961;-81
2022/12/30 11:28:17;;;;;;;5.60;2.28;;;7.10;99.90;;;;;;5029796;28;20049;-82
2022/12/30 11:30:57;;;;;;;12.63;2.53;;;7.20;99.90;;;;;;5027033;28;20049;-82
2022/12/30 11:33:33;;;;;;;5.80;2.20;;;7.20;99.90;;;;;;5028613;28;20045;-82
2022/12/30 11:36:20;;;;;;;7.05;2.13;;;7.30;99.90;;;;;;5029297;28;20051;-83
2022/12/30 11:38:51;;;;;;;7.10;2.25;;;7.30;99.90;;;;;;5028885;28;20068;-83
2022/12/30 11:41:16;;;;;;;6.25;2.70;;;7.40;99.90;;;;;;5028556;28;20049;-82
2022/12/30 11:43:43;;;;;;;5.90;1.85;;;7.40;99.90;;;;;;5028063;28;20048;-82
2022/12/30 11:46:16;;;;;;;5.32;1.92;;;7.40;99.90;;;;;;5024531;28;20041;-82
2022/12/30 11:48:52;;;;;;;;;;;7.50;99.90;;;;;;5016293;28;20053;-82
2022/12/30 11:51:24;;;;;;;4.43;1.60;;;7.50;99.90;;;;;;5029365;28;19921;-83
2022/12/30 11:54:10;;;;;;;5.75;1.80;;;7.50;99.90;;;;;;5028363;28;20049;-83
2022/12/30 11:56:37;;;;;;;6.43;2.17;;;8.40;99.90;;;;;;5016031;28;20049;-83
2022/12/30 11:59:15;;;;;;;6.22;2.35;;;7.50;99.90;;;;;;5011746;28;20480;-84
2022/12/30 12:01:47;;;;;;;8.07;1.80;;;7.60;99.90;;;;;;5023405;28;20048;-82
2022/12/30 12:04:30;;;;;;;;;;;7.60;99.90;;;;;;5026066;28;20041;-83
2022/12/30 12:06:56;;;;;;;5.45;1.60;;;7.60;99.90;;;;;;5029125;28;19929;-83
2022/12/30 12:09:31;;;;;;;5.25;1.60;;;7.70;99.90;;;;;;5028152;28;20084;-81
2022/12/30 12:11:59;;;;;;;6.80;1.98;;;7.70;99.90;;;;;;5027473;28;20041;-82
2022/12/30 12:14:45;;;;;;;7.32;1.70;;;7.70;99.90;;;;;;5028948;28;20046;-82
2022/12/30 12:17:35;;;;;;;4.13;2.00;;;7.70;99.90;;;;;;5028354;28;20049;-81
2022/12/30 12:20:09;;;;;;;4.43;1.70;;;7.70;99.90;;;;;;4992459;28;20049;-81
2022/12/30 12:22:50;;;;;;;5.15;1.85;;;7.70;99.90;;;;;;5008903;28;20065;-81
2022/12/30 12:25:21;;;;;;;5.03;1.60;;;7.70;99.90;;;;;;5007950;28;20503;-81
2022/12/30 12:27:56;;;;;;;7.18;1.65;;;7.70;99.90;;;;;;5019737;28;20045;-82
2022/12/30 12:30:21;;;;;;;6.15;1.90;;;7.80;99.90;;;;;;5028565;28;20073;-81
2022/12/30 12:33:09;;;;;;;6.72;2.08;;;7.80;99.90;;;;;;5022683;28;20066;-81
2022/12/30 12:35:46;;;;;;;4.88;2.03;;;7.80;99.90;;;;;;5007279;28;20042;-81
2022/12/30 12:38:42;;;;;;;5.57;2.38;;;7.80;99.90;;;;;;5007174;28;20449;-81
2022/12/30 12:41:44;;;;;;;3.75;1.65;;;8.60;99.90;;;;;;5006312;28;20069;-81
2022/12/30 12:44:27;;;;;;;3.70;1.90;;;7.80;99.90;;;;;;5008399;28;20133;-81
2022/12/30 12:47:11;;;;;;;5.10;1.90;;;7.90;99.90;;;;;;5005907;28;20740;-82
2022/12/30 12:49:49;;;;;;;5.50;2.38;;;7.90;99.90;;;;;;5015788;28;20045;-79
2022/12/30 12:52:33;;;;;;;6.75;2.15;;;8.00;99.90;;;;;;5025478;28;20048;-81
2022/12/30 12:55:21;;;;;;;5.68;1.67;;;8.00;99.90;;;;;;5028670;28;20533;-83
2022/12/30 12:58:09;;;;;;;7.20;2.10;;;8.10;99.90;;;;;;5026264;28;22108;-81
2022/12/30 13:00:50;;;;;;;5.65;1.95;;;8.10;99.90;;;;;;5023397;28;20396;-81
2022/12/30 13:03:29;;;;;;;4.35;1.80;;;8.10;99.90;;;;;;5031036;28;20076;-81
2022/12/30 13:06:05;;;;;;;6.03;1.80;;;8.10;99.90;;;;;;5026490;28;20053;-82
2022/12/30 13:09:01;;;;;;;5.00;1.60;;;8.20;99.90;;;;;;5026223;28;20526;-81
2022/12/30 13:12:03;;;;;;;6.00;1.95;;;8.20;99.90;;;;;;5013476;28;20092;-81
2022/12/30 13:14:55;;;;;;;5.13;1.95;;;8.20;99.90;;;;;;5009006;28;20083;-82
2022/12/30 13:17:41;;;;;;;4.67;2.13;;;8.20;99.90;;;;;;5027348;28;20050;-82
2022/12/30 13:20:15;;;;;;;6.90;2.05;;;8.20;99.90;;;;;;5027317;28;20056;-82
2022/12/30 13:22:41;;;;;;;2.88;1.40;;;8.20;99.90;;;;;;5022718;28;20050;-85
2022/12/30 13:25:15;;;;;;;7.28;2.83;;;8.20;99.90;;;;;;5006812;28;20049;-83
2022/12/30 13:27:45;;;;;;;5.05;1.80;;;8.30;99.90;;;;;;5007732;28;20057;-82
2022/12/30 13:30:21;;;;;;;5.28;1.55;;;8.30;99.90;;;;;;5014537;28;20049;-82
2022/12/30 13:33:10;;;;;;;5.15;1.48;;;8.30;99.90;;;;;;5002049;28;20073;-82
2022/12/30 13:35:45;;;;;;;2.83;1.52;;;8.30;99.90;;;;;;4994972;28;20572;-82
2022/12/30 13:38:33;;;;;;;5.63;1.65;;;8.20;99.90;;;;;;5018071;28;20626;-82
2022/12/30 13:41:20;;;;;;;5.60;1.75;;;8.40;99.90;;;;;;5027262;28;20076;-81
2022/12/30 13:43:56;;;;;;;5.28;1.55;;;8.40;99.90;;;;;;5030021;28;20041;-81
2022/12/30 13:46:26;;;;;;;4.70;1.33;;;8.40;99.90;;;;;;5021387;28;20443;-82
2022/12/30 13:48:56;;;;;;;5.30;1.55;;;8.90;99.90;;;;;;5017380;28;20037;-82
2022/12/30 13:51:29;;;;;;;3.47;1.20;;;7.70;99.90;;;;;;5029703;28;20103;-82
2022/12/30 13:54:09;;;;;;;6.18;1.95;;;9.30;99.90;;;;;;5020236;28;20053;-83
2022/12/30 13:56:41;;;;;;;2.53;1.27;;;8.50;99.90;;;;;;5023117;28;20050;-82
2022/12/30 13:59:35;;;;;;;3.17;1.40;;;9.00;99.90;;;;;;5026822;28;20053;-81
2022/12/30 14:02:19;;;;;;;7.53;1.92;;;8.60;99.90;;;;;;5011789;28;20381;-82
2022/12/30 14:05:02;;;;;;;6.45;1.73;;;8.60;99.90;;;;;;5007659;28;20060;-82
2022/12/30 14:07:46;;;;;;;4.85;1.50;;;8.70;99.90;;;;;;5020806;28;20042;-81
2022/12/30 14:10:21;;;;;;;3.50;1.65;;;8.70;99.90;;;;;;5025531;28;20041;-81
2022/12/30 14:13:19;;;;;;;3.70;1.27;;;8.70;99.90;;;;;;5029438;28;20398;-82
2022/12/30 14:19:45;;;;;;;5.60;2.00;;;8.70;99.90;;;;;;5011891;28;20725;-82